sensor_id;sensor_type;location;lat;lon;timestamp;temperature;humidity
51615;DHT22;37695;52.960;6.188;2023-05-10T00:02:21;13.10;99.90
51615;DHT22;37695;52.960;6.188;2023-05-10T00:04:46;13.10;99.90
51615;DHT22;37695;52.960;6.188;2023-05-10T00:07:12;13.10;99.90
51615;DHT22;37695;52.960;6.188;2023-05-10T00:09:37;13.00;99.90
51615;DHT22;37695;52.960;6.188;2023-05-10T00:12:03;13.00;99.90
51615;DHT22;37695;52.960;6.188;2023-05-10T00:14:29;13.00;99.90
51615;DHT22;37695;52.960;6.188;2023-05-10T00:16:55;13.00;99.90
51615;DHT22;37695;52.960;6.188;2023-05-10T00:19:20;13.00;99.90
51615;DHT22;37695;52.960;6.188;2023-05-10T00:21:46;13.00;99.90
51615;DHT22;37695;52.960;6.188;2023-05-10T00:24:11;12.90;99.90
51615;DHT22;37695;52.960;6.188;2023-05-10T00:26:37;12.90;99.90
51615;DHT22;37695;52.960;6.188;2023-05-10T00:29:02;12.80;99.90
51615;DHT22;37695;52.960;6.188;2023-05-10T00:31:28;12.90;99.90
51615;DHT22;37695;52.960;6.188;2023-05-10T00:33:54;12.80;99.90
51615;DHT22;37695;52.960;6.188;2023-05-10T00:36:19;12.80;99.90
51615;DHT22;37695;52.960;6.188;2023-05-10T00:38:46;12.80;99.90
51615;DHT22;37695;52.960;6.188;2023-05-10T00:41:11;12.80;99.90
51615;DHT22;37695;52.960;6.188;2023-05-10T00:43:37;12.80;99.90
51615;DHT22;37695;52.960;6.188;2023-05-10T00:46:03;12.80;99.90
51615;DHT22;37695;52.960;6.188;2023-05-10T00:48:29;12.80;99.90
51615;DHT22;37695;52.960;6.188;2023-05-10T00:50:55;12.70;99.90
51615;DHT22;37695;52.960;6.188;2023-05-10T00:53:21;12.80;99.90
51615;DHT22;37695;52.960;6.188;2023-05-10T00:55:46;12.70;99.90
51615;DHT22;37695;52.960;6.188;2023-05-10T00:58:12;12.70;99.90
51615;DHT22;37695;52.960;6.188;2023-05-10T01:00:41;12.70;99.90
51615;DHT22;37695;52.960;6.188;2023-05-10T01:03:07;12.70;99.90
51615;DHT22;37695;52.960;6.188;2023-05-10T01:05:32;12.70;99.90
51615;DHT22;37695;52.960;6.188;2023-05-10T01:07:58;12.70;99.90
51615;DHT22;37695;52.960;6.188;2023-05-10T01:10:23;12.70;99.90
51615;DHT22;37695;52.960;6.188;2023-05-10T01:12:49;12.70;99.90
51615;DHT22;37695;52.960;6.188;2023-05-10T01:15:16;12.70;99.90
51615;DHT22;37695;52.960;6.188;2023-05-10T01:17:44;12.70;99.90
51615;DHT22;37695;52.960;6.188;2023-05-10T01:20:11;12.70;99.90
51615;DHT22;37695;52.960;6.188;2023-05-10T01:28:07;12.70;99.90
51615;DHT22;37695;52.960;6.188;2023-05-10T01:31:03;12.70;99.90
51615;DHT22;37695;52.960;6.188;2023-05-10T01:36:39;12.70;99.90
51615;DHT22;37695;52.960;6.188;2023-05-10T01:39:24;12.70;99.90
51615;DHT22;37695;52.960;6.188;2023-05-10T01:42:02;12.70;99.90
51615;DHT22;37695;52.960;6.188;2023-05-10T01:44:46;12.70;99.90
51615;DHT22;37695;52.960;6.188;2023-05-10T01:47:19;12.70;99.90
51615;DHT22;37695;52.960;6.188;2023-05-10T01:49:50;12.70;99.90
51615;DHT22;37695;52.960;6.188;2023-05-10T01:52:33;12.70;99.90
51615;DHT22;37695;52.960;6.188;2023-05-10T01:55:05;12.80;99.90
51615;DHT22;37695;52.960;6.188;2023-05-10T01:57:33;12.70;99.90
51615;DHT22;37695;52.960;6.188;2023-05-10T01:59:59;12.70;99.90
51615;DHT22;37695;52.960;6.188;2023-05-10T02:02:27;12.70;99.90
51615;DHT22;37695;52.960;6.188;2023-05-10T02:04:54;12.70;99.90
51615;DHT22;37695;52.960;6.188;2023-05-10T02:07:21;12.70;99.90
51615;DHT22;37695;52.960;6.188;2023-05-10T02:09:48;12.70;99.90
51615;DHT22;37695;52.960;6.188;2023-05-10T02:12:15;12.70;99.90
51615;DHT22;37695;52.960;6.188;2023-05-10T02:14:42;12.70;99.90
51615;DHT22;37695;52.960;6.188;2023-05-10T02:17:09;12.70;99.90
51615;DHT22;37695;52.960;6.188;2023-05-10T02:19:38;12.60;99.90
51615;DHT22;37695;52.960;6.188;2023-05-10T02:22:05;12.70;99.90
51615;DHT22;37695;52.960;6.188;2023-05-10T02:24:32;12.60;99.90
51615;DHT22;37695;52.960;6.188;2023-05-10T02:27:00;12.60;99.90
51615;DHT22;37695;52.960;6.188;2023-05-10T02:29:28;12.60;99.90
51615;DHT22;37695;52.960;6.188;2023-05-10T02:31:54;12.60;99.90
51615;DHT22;37695;52.960;6.188;2023-05-10T02:34:22;12.60;99.90
51615;DHT22;37695;52.960;6.188;2023-05-10T02:36:49;12.60;99.90
51615;DHT22;37695;52.960;6.188;2023-05-10T02:39:16;12.60;99.90
51615;DHT22;37695;52.960;6.188;2023-05-10T02:41:46;12.60;99.90
51615;DHT22;37695;52.960;6.188;2023-05-10T02:44:15;13.00;99.90
51615;DHT22;37695;52.960;6.188;2023-05-10T02:46:41;12.60;99.90
51615;DHT22;37695;52.960;6.188;2023-05-10T02:49:07;12.60;99.90
51615;DHT22;37695;52.960;6.188;2023-05-10T02:51:36;12.50;99.90
51615;DHT22;37695;52.960;6.188;2023-05-10T02:54:20;12.50;99.90
51615;DHT22;37695;52.960;6.188;2023-05-10T02:56:57;12.50;99.90
51615;DHT22;37695;52.960;6.188;2023-05-10T02:59:23;12.50;99.90
51615;DHT22;37695;52.960;6.188;2023-05-10T03:01:49;12.50;99.90
51615;DHT22;37695;52.960;6.188;2023-05-10T03:04:14;12.50;99.90
51615;DHT22;37695;52.960;6.188;2023-05-10T03:06:40;12.50;99.90
51615;DHT22;37695;52.960;6.188;2023-05-10T03:09:06;12.50;99.90
51615;DHT22;37695;52.960;6.188;2023-05-10T03:11:54;12.50;99.90
51615;DHT22;37695;52.960;6.188;2023-05-10T03:14:34;12.50;99.90
51615;DHT22;37695;52.960;6.188;2023-05-10T03:17:15;12.60;99.90
51615;DHT22;37695;52.960;6.188;2023-05-10T03:19:56;12.60;99.90
51615;DHT22;37695;52.960;6.188;2023-05-10T03:22:28;12.50;99.90
51615;DHT22;37695;52.960;6.188;2023-05-10T03:24:56;12.50;99.90
51615;DHT22;37695;52.960;6.188;2023-05-10T03:27:25;12.50;99.90
51615;DHT22;37695;52.960;6.188;2023-05-10T03:29:53;12.50;99.90
51615;DHT22;37695;52.960;6.188;2023-05-10T03:32:20;12.50;99.90
51615;DHT22;37695;52.960;6.188;2023-05-10T03:34:45;12.50;99.90
51615;DHT22;37695;52.960;6.188;2023-05-10T03:37:11;12.50;99.90
51615;DHT22;37695;52.960;6.188;2023-05-10T03:39:36;12.50;99.90
51615;DHT22;37695;52.960;6.188;2023-05-10T03:42:02;12.50;99.90
51615;DHT22;37695;52.960;6.188;2023-05-10T03:44:28;12.50;99.90
51615;DHT22;37695;52.960;6.188;2023-05-10T03:46:53;12.50;99.90
51615;DHT22;37695;52.960;6.188;2023-05-10T03:49:19;12.50;99.90
51615;DHT22;37695;52.960;6.188;2023-05-10T03:51:44;12.50;99.90
51615;DHT22;37695;52.960;6.188;2023-05-10T03:54:10;12.50;99.90
51615;DHT22;37695;52.960;6.188;2023-05-10T03:56:35;12.50;99.90
51615;DHT22;37695;52.960;6.188;2023-05-10T03:59:01;12.50;99.90
51615;DHT22;37695;52.960;6.188;2023-05-10T04:01:26;12.50;99.90
51615;DHT22;37695;52.960;6.188;2023-05-10T04:03:52;12.50;99.90
51615;DHT22;37695;52.960;6.188;2023-05-10T04:06:17;12.50;99.90
51615;DHT22;37695;52.960;6.188;2023-05-10T04:08:43;12.50;99.90
51615;DHT22;37695;52.960;6.188;2023-05-10T04:11:11;12.50;99.90
51615;DHT22;37695;52.960;6.188;2023-05-10T04:13:37;12.50;99.90
51615;DHT22;37695;52.960;6.188;2023-05-10T04:16:03;12.50;99.90
51615;DHT22;37695;52.960;6.188;2023-05-10T04:18:29;12.50;99.90
51615;DHT22;37695;52.960;6.188;2023-05-10T04:20:55;12.50;99.90
51615;DHT22;37695;52.960;6.188;2023-05-10T04:23:20;12.50;99.90
51615;DHT22;37695;52.960;6.188;2023-05-10T04:25:46;12.50;99.90
51615;DHT22;37695;52.960;6.188;2023-05-10T04:28:11;12.50;99.90
51615;DHT22;37695;52.960;6.188;2023-05-10T04:30:37;12.50;99.90
51615;DHT22;37695;52.960;6.188;2023-05-10T04:33:02;12.50;99.90
51615;DHT22;37695;52.960;6.188;2023-05-10T04:35:28;12.50;99.90
51615;DHT22;37695;52.960;6.188;2023-05-10T04:37:54;12.50;99.90
51615;DHT22;37695;52.960;6.188;2023-05-10T04:40:20;12.50;99.90
51615;DHT22;37695;52.960;6.188;2023-05-10T04:42:45;12.50;99.90
51615;DHT22;37695;52.960;6.188;2023-05-10T04:45:11;12.50;99.90
51615;DHT22;37695;52.960;6.188;2023-05-10T04:47:37;12.50;99.90
51615;DHT22;37695;52.960;6.188;2023-05-10T04:50:04;12.50;99.90
51615;DHT22;37695;52.960;6.188;2023-05-10T04:52:29;12.40;99.90
51615;DHT22;37695;52.960;6.188;2023-05-10T04:54:55;12.50;99.90
51615;DHT22;37695;52.960;6.188;2023-05-10T04:57:21;12.40;99.90
51615;DHT22;37695;52.960;6.188;2023-05-10T04:59:46;12.40;99.90
51615;DHT22;37695;52.960;6.188;2023-05-10T05:02:12;12.50;99.90
51615;DHT22;37695;52.960;6.188;2023-05-10T05:04:37;12.40;99.90
51615;DHT22;37695;52.960;6.188;2023-05-10T05:07:03;12.50;99.90
51615;DHT22;37695;52.960;6.188;2023-05-10T05:09:28;12.40;99.90
51615;DHT22;37695;52.960;6.188;2023-05-10T05:11:54;12.40;99.90
51615;DHT22;37695;52.960;6.188;2023-05-10T05:14:19;12.50;99.90
51615;DHT22;37695;52.960;6.188;2023-05-10T05:16:46;12.40;99.90
51615;DHT22;37695;52.960;6.188;2023-05-10T05:19:11;12.40;99.90
51615;DHT22;37695;52.960;6.188;2023-05-10T05:21:37;12.40;99.90
51615;DHT22;37695;52.960;6.188;2023-05-10T05:24:03;12.50;99.90
51615;DHT22;37695;52.960;6.188;2023-05-10T05:26:29;12.40;99.90
51615;DHT22;37695;52.960;6.188;2023-05-10T05:28:54;12.40;99.90
51615;DHT22;37695;52.960;6.188;2023-05-10T05:31:20;12.50;99.90
51615;DHT22;37695;52.960;6.188;2023-05-10T05:33:46;12.50;99.90
51615;DHT22;37695;52.960;6.188;2023-05-10T05:36:12;12.50;99.90
51615;DHT22;37695;52.960;6.188;2023-05-10T05:38:37;12.50;99.90
51615;DHT22;37695;52.960;6.188;2023-05-10T05:41:03;12.50;99.90
51615;DHT22;37695;52.960;6.188;2023-05-10T05:43:28;12.50;99.90
51615;DHT22;37695;52.960;6.188;2023-05-10T05:45:54;12.50;99.90
51615;DHT22;37695;52.960;6.188;2023-05-10T05:48:20;12.50;99.90
51615;DHT22;37695;52.960;6.188;2023-05-10T05:50:46;12.50;99.90
51615;DHT22;37695;52.960;6.188;2023-05-10T05:53:11;12.60;99.90
51615;DHT22;37695;52.960;6.188;2023-05-10T05:55:37;12.60;99.90
51615;DHT22;37695;52.960;6.188;2023-05-10T05:58:02;12.60;99.90
51615;DHT22;37695;52.960;6.188;2023-05-10T06:00:28;12.70;99.90
51615;DHT22;37695;52.960;6.188;2023-05-10T06:02:54;12.70;99.90
51615;DHT22;37695;52.960;6.188;2023-05-10T06:05:19;12.70;99.90
51615;DHT22;37695;52.960;6.188;2023-05-10T06:07:46;12.70;99.90
51615;DHT22;37695;52.960;6.188;2023-05-10T06:10:11;12.70;99.90
51615;DHT22;37695;52.960;6.188;2023-05-10T06:12:37;12.70;99.90
51615;DHT22;37695;52.960;6.188;2023-05-10T06:15:03;12.70;99.90
51615;DHT22;37695;52.960;6.188;2023-05-10T06:17:29;12.70;99.90
51615;DHT22;37695;52.960;6.188;2023-05-10T06:19:55;12.70;99.90
51615;DHT22;37695;52.960;6.188;2023-05-10T06:22:20;12.70;99.90
51615;DHT22;37695;52.960;6.188;2023-05-10T06:24:48;12.80;99.90
51615;DHT22;37695;52.960;6.188;2023-05-10T06:27:13;12.80;99.90
51615;DHT22;37695;52.960;6.188;2023-05-10T06:29:39;12.80;99.90
51615;DHT22;37695;52.960;6.188;2023-05-10T06:32:05;12.80;99.90
51615;DHT22;37695;52.960;6.188;2023-05-10T06:34:30;12.80;99.90
51615;DHT22;37695;52.960;6.188;2023-05-10T06:36:56;12.80;99.90
51615;DHT22;37695;52.960;6.188;2023-05-10T06:39:22;12.80;99.90
51615;DHT22;37695;52.960;6.188;2023-05-10T06:41:48;12.90;99.90
51615;DHT22;37695;52.960;6.188;2023-05-10T06:44:13;12.90;99.90
51615;DHT22;37695;52.960;6.188;2023-05-10T06:46:39;12.80;99.90
51615;DHT22;37695;52.960;6.188;2023-05-10T06:49:04;12.80;99.90
51615;DHT22;37695;52.960;6.188;2023-05-10T06:51:30;12.80;99.90
51615;DHT22;37695;52.960;6.188;2023-05-10T06:53:56;12.80;99.90
51615;DHT22;37695;52.960;6.188;2023-05-10T06:56:21;12.80;99.90
51615;DHT22;37695;52.960;6.188;2023-05-10T06:58:47;12.80;99.90
51615;DHT22;37695;52.960;6.188;2023-05-10T07:01:13;12.80;99.90
51615;DHT22;37695;52.960;6.188;2023-05-10T07:03:39;12.80;99.90
51615;DHT22;37695;52.960;6.188;2023-05-10T07:06:05;12.90;99.90
51615;DHT22;37695;52.960;6.188;2023-05-10T07:08:32;12.90;99.90
51615;DHT22;37695;52.960;6.188;2023-05-10T07:11:06;12.90;99.90
51615;DHT22;37695;52.960;6.188;2023-05-10T07:13:33;12.90;99.90
51615;DHT22;37695;52.960;6.188;2023-05-10T07:15:59;12.90;99.90
51615;DHT22;37695;52.960;6.188;2023-05-10T07:18:26;12.90;99.90
51615;DHT22;37695;52.960;6.188;2023-05-10T07:20:51;12.90;99.90
51615;DHT22;37695;52.960;6.188;2023-05-10T07:23:17;13.00;99.90
51615;DHT22;37695;52.960;6.188;2023-05-10T07:25:48;13.00;99.90
51615;DHT22;37695;52.960;6.188;2023-05-10T07:28:15;13.00;99.90
51615;DHT22;37695;52.960;6.188;2023-05-10T07:30:41;13.00;99.90
51615;DHT22;37695;52.960;6.188;2023-05-10T07:33:08;12.90;99.90
51615;DHT22;37695;52.960;6.188;2023-05-10T07:35:34;12.90;99.90
51615;DHT22;37695;52.960;6.188;2023-05-10T07:38:00;12.90;99.90
51615;DHT22;37695;52.960;6.188;2023-05-10T07:40:25;12.80;99.90
51615;DHT22;37695;52.960;6.188;2023-05-10T07:42:51;12.90;99.90
51615;DHT22;37695;52.960;6.188;2023-05-10T07:45:17;13.00;99.90
51615;DHT22;37695;52.960;6.188;2023-05-10T07:47:43;13.00;99.90
51615;DHT22;37695;52.960;6.188;2023-05-10T07:50:08;13.00;99.90
51615;DHT22;37695;52.960;6.188;2023-05-10T07:52:34;13.00;99.90
51615;DHT22;37695;52.960;6.188;2023-05-10T07:54:59;13.00;99.90
51615;DHT22;37695;52.960;6.188;2023-05-10T07:57:25;13.00;99.90
51615;DHT22;37695;52.960;6.188;2023-05-10T07:59:50;13.10;99.90
51615;DHT22;37695;52.960;6.188;2023-05-10T08:02:16;13.00;99.90
51615;DHT22;37695;52.960;6.188;2023-05-10T08:04:41;13.10;99.90
51615;DHT22;37695;52.960;6.188;2023-05-10T08:07:07;13.90;99.90
51615;DHT22;37695;52.960;6.188;2023-05-10T08:09:33;13.10;99.90
51615;DHT22;37695;52.960;6.188;2023-05-10T08:11:58;13.20;99.90
51615;DHT22;37695;52.960;6.188;2023-05-10T08:14:25;13.10;99.90
51615;DHT22;37695;52.960;6.188;2023-05-10T08:16:51;13.10;99.90
51615;DHT22;37695;52.960;6.188;2023-05-10T08:19:17;13.20;99.90
51615;DHT22;37695;52.960;6.188;2023-05-10T08:21:45;13.20;99.90
51615;DHT22;37695;52.960;6.188;2023-05-10T08:24:11;13.20;99.90
51615;DHT22;37695;52.960;6.188;2023-05-10T08:26:36;13.20;99.90
51615;DHT22;37695;52.960;6.188;2023-05-10T08:29:03;13.30;99.90
51615;DHT22;37695;52.960;6.188;2023-05-10T08:31:28;13.30;99.90
51615;DHT22;37695;52.960;6.188;2023-05-10T08:33:54;13.30;99.90
51615;DHT22;37695;52.960;6.188;2023-05-10T08:36:19;13.40;99.90
51615;DHT22;37695;52.960;6.188;2023-05-10T08:38:50;13.40;99.90
51615;DHT22;37695;52.960;6.188;2023-05-10T08:41:21;13.50;99.90
51615;DHT22;37695;52.960;6.188;2023-05-10T08:43:50;13.60;99.90
51615;DHT22;37695;52.960;6.188;2023-05-10T08:46:18;13.60;99.90
51615;DHT22;37695;52.960;6.188;2023-05-10T08:48:49;13.60;99.90
51615;DHT22;37695;52.960;6.188;2023-05-10T08:51:21;13.60;99.90
51615;DHT22;37695;52.960;6.188;2023-05-10T08:53:47;13.60;99.90
51615;DHT22;37695;52.960;6.188;2023-05-10T08:56:13;13.60;99.90
51615;DHT22;37695;52.960;6.188;2023-05-10T08:58:41;13.70;99.90
51615;DHT22;37695;52.960;6.188;2023-05-10T09:01:07;13.70;99.90
51615;DHT22;37695;52.960;6.188;2023-05-10T09:03:33;13.80;99.90
51615;DHT22;37695;52.960;6.188;2023-05-10T09:06:00;13.90;99.90
51615;DHT22;37695;52.960;6.188;2023-05-10T09:08:26;14.10;99.90
51615;DHT22;37695;52.960;6.188;2023-05-10T09:10:53;14.10;99.90
51615;DHT22;37695;52.960;6.188;2023-05-10T09:13:19;14.20;99.90
51615;DHT22;37695;52.960;6.188;2023-05-10T09:15:46;14.50;99.90
51615;DHT22;37695;52.960;6.188;2023-05-10T09:18:12;14.60;99.90
51615;DHT22;37695;52.960;6.188;2023-05-10T09:20:38;14.70;99.90
51615;DHT22;37695;52.960;6.188;2023-05-10T09:23:03;14.80;99.90
51615;DHT22;37695;52.960;6.188;2023-05-10T09:25:30;14.90;99.90
51615;DHT22;37695;52.960;6.188;2023-05-10T09:27:58;14.90;99.90
51615;DHT22;37695;52.960;6.188;2023-05-10T09:30:25;15.00;99.90
51615;DHT22;37695;52.960;6.188;2023-05-10T09:32:51;14.90;99.90
51615;DHT22;37695;52.960;6.188;2023-05-10T09:35:19;15.00;99.90
51615;DHT22;37695;52.960;6.188;2023-05-10T09:37:51;14.90;99.90
51615;DHT22;37695;52.960;6.188;2023-05-10T09:40:18;15.00;99.90
51615;DHT22;37695;52.960;6.188;2023-05-10T09:42:55;15.00;99.90
51615;DHT22;37695;52.960;6.188;2023-05-10T09:45:28;15.10;99.90
51615;DHT22;37695;52.960;6.188;2023-05-10T09:47:55;15.20;99.90
51615;DHT22;37695;52.960;6.188;2023-05-10T09:50:21;15.20;99.90
51615;DHT22;37695;52.960;6.188;2023-05-10T09:52:48;15.20;99.90
51615;DHT22;37695;52.960;6.188;2023-05-10T09:55:15;15.20;99.90
51615;DHT22;37695;52.960;6.188;2023-05-10T09:57:41;15.30;99.90
51615;DHT22;37695;52.960;6.188;2023-05-10T10:00:07;15.30;99.90
51615;DHT22;37695;52.960;6.188;2023-05-10T10:02:35;15.30;99.90
51615;DHT22;37695;52.960;6.188;2023-05-10T10:05:02;15.20;99.90
51615;DHT22;37695;52.960;6.188;2023-05-10T10:07:29;15.10;99.90
51615;DHT22;37695;52.960;6.188;2023-05-10T10:09:55;15.10;99.90
51615;DHT22;37695;52.960;6.188;2023-05-10T10:12:20;15.10;99.90
51615;DHT22;37695;52.960;6.188;2023-05-10T10:14:47;15.10;99.90
51615;DHT22;37695;52.960;6.188;2023-05-10T10:17:16;15.20;99.90
51615;DHT22;37695;52.960;6.188;2023-05-10T10:19:42;15.20;99.90
51615;DHT22;37695;52.960;6.188;2023-05-10T10:22:08;15.20;99.90
51615;DHT22;37695;52.960;6.188;2023-05-10T10:24:36;15.30;99.90
51615;DHT22;37695;52.960;6.188;2023-05-10T10:27:13;15.30;99.90
51615;DHT22;37695;52.960;6.188;2023-05-10T10:29:50;15.40;99.90
51615;DHT22;37695;52.960;6.188;2023-05-10T10:32:42;15.50;99.90
51615;DHT22;37695;52.960;6.188;2023-05-10T10:35:15;15.50;99.90
51615;DHT22;37695;52.960;6.188;2023-05-10T10:37:43;15.50;99.90
51615;DHT22;37695;52.960;6.188;2023-05-10T10:40:32;15.60;99.90
51615;DHT22;37695;52.960;6.188;2023-05-10T10:43:24;15.70;99.90
51615;DHT22;37695;52.960;6.188;2023-05-10T10:46:13;15.70;99.90
51615;DHT22;37695;52.960;6.188;2023-05-10T10:48:40;15.60;99.90
51615;DHT22;37695;52.960;6.188;2023-05-10T10:51:06;15.50;99.90
51615;DHT22;37695;52.960;6.188;2023-05-10T10:53:32;15.50;99.90
51615;DHT22;37695;52.960;6.188;2023-05-10T10:56:11;15.50;99.90
51615;DHT22;37695;52.960;6.188;2023-05-10T10:58:39;15.40;99.90
51615;DHT22;37695;52.960;6.188;2023-05-10T11:01:11;15.40;99.90
51615;DHT22;37695;52.960;6.188;2023-05-10T11:03:37;15.40;99.90
51615;DHT22;37695;52.960;6.188;2023-05-10T11:06:03;15.50;99.90
51615;DHT22;37695;52.960;6.188;2023-05-10T11:08:30;15.50;99.90
51615;DHT22;37695;52.960;6.188;2023-05-10T11:13:46;15.50;99.90
51615;DHT22;37695;52.960;6.188;2023-05-10T11:16:24;15.60;99.90
51615;DHT22;37695;52.960;6.188;2023-05-10T11:18:56;15.60;99.90
51615;DHT22;37695;52.960;6.188;2023-05-10T11:21:22;15.60;99.90
51615;DHT22;37695;52.960;6.188;2023-05-10T11:23:58;15.60;99.90
51615;DHT22;37695;52.960;6.188;2023-05-10T11:26:29;15.60;99.90
51615;DHT22;37695;52.960;6.188;2023-05-10T11:28:55;15.60;99.90
51615;DHT22;37695;52.960;6.188;2023-05-10T11:31:21;15.60;99.90
51615;DHT22;37695;52.960;6.188;2023-05-10T11:33:51;15.60;99.90
51615;DHT22;37695;52.960;6.188;2023-05-10T11:36:21;15.50;99.90
51615;DHT22;37695;52.960;6.188;2023-05-10T11:38:47;15.50;99.90
51615;DHT22;37695;52.960;6.188;2023-05-10T11:41:14;15.40;99.90
51615;DHT22;37695;52.960;6.188;2023-05-10T11:43:41;15.30;99.90
51615;DHT22;37695;52.960;6.188;2023-05-10T11:46:08;15.10;99.90
51615;DHT22;37695;52.960;6.188;2023-05-10T11:48:35;15.00;99.90
51615;DHT22;37695;52.960;6.188;2023-05-10T11:51:01;14.90;99.90
51615;DHT22;37695;52.960;6.188;2023-05-10T11:53:31;14.90;99.90
51615;DHT22;37695;52.960;6.188;2023-05-10T11:56:03;14.80;99.90
51615;DHT22;37695;52.960;6.188;2023-05-10T11:58:30;14.80;99.90
51615;DHT22;37695;52.960;6.188;2023-05-10T12:00:56;14.90;99.90
51615;DHT22;37695;52.960;6.188;2023-05-10T12:03:22;14.90;99.90
51615;DHT22;37695;52.960;6.188;2023-05-10T12:05:47;15.00;99.90
51615;DHT22;37695;52.960;6.188;2023-05-10T12:08:14;15.00;99.90
51615;DHT22;37695;52.960;6.188;2023-05-10T12:10:41;15.10;99.90
51615;DHT22;37695;52.960;6.188;2023-05-10T12:13:14;15.10;99.90
51615;DHT22;37695;52.960;6.188;2023-05-10T12:15:40;15.20;99.90
51615;DHT22;37695;52.960;6.188;2023-05-10T12:18:11;15.20;99.90
51615;DHT22;37695;52.960;6.188;2023-05-10T12:20:37;15.30;99.90
51615;DHT22;37695;52.960;6.188;2023-05-10T12:23:03;15.30;99.90
51615;DHT22;37695;52.960;6.188;2023-05-10T12:25:33;15.30;99.90
51615;DHT22;37695;52.960;6.188;2023-05-10T12:28:02;15.60;99.90
51615;DHT22;37695;52.960;6.188;2023-05-10T12:30:30;15.40;99.90
51615;DHT22;37695;52.960;6.188;2023-05-10T12:33:13;15.40;99.90
51615;DHT22;37695;52.960;6.188;2023-05-10T12:35:51;15.50;99.90
51615;DHT22;37695;52.960;6.188;2023-05-10T12:40:54;15.50;99.90
51615;DHT22;37695;52.960;6.188;2023-05-10T12:43:19;15.50;99.90
51615;DHT22;37695;52.960;6.188;2023-05-10T12:45:45;15.40;99.90
51615;DHT22;37695;52.960;6.188;2023-05-10T12:48:13;15.50;99.90
51615;DHT22;37695;52.960;6.188;2023-05-10T12:50:39;15.60;99.90
51615;DHT22;37695;52.960;6.188;2023-05-10T12:53:04;15.60;99.90
51615;DHT22;37695;52.960;6.188;2023-05-10T12:55:30;15.60;99.90
51615;DHT22;37695;52.960;6.188;2023-05-10T12:57:55;15.60;99.90
51615;DHT22;37695;52.960;6.188;2023-05-10T13:00:21;15.60;99.90
51615;DHT22;37695;52.960;6.188;2023-05-10T13:02:46;15.70;99.90
51615;DHT22;37695;52.960;6.188;2023-05-10T13:05:12;15.80;99.90
51615;DHT22;37695;52.960;6.188;2023-05-10T13:07:38;16.00;99.90
51615;DHT22;37695;52.960;6.188;2023-05-10T13:10:05;16.10;99.90
51615;DHT22;37695;52.960;6.188;2023-05-10T13:12:31;16.20;99.90
51615;DHT22;37695;52.960;6.188;2023-05-10T13:14:57;16.30;99.90
51615;DHT22;37695;52.960;6.188;2023-05-10T13:17:22;16.40;99.90
51615;DHT22;37695;52.960;6.188;2023-05-10T13:19:48;16.50;99.90
51615;DHT22;37695;52.960;6.188;2023-05-10T13:22:13;16.60;99.90
51615;DHT22;37695;52.960;6.188;2023-05-10T13:24:39;16.60;99.90
51615;DHT22;37695;52.960;6.188;2023-05-10T13:27:04;16.70;99.90
51615;DHT22;37695;52.960;6.188;2023-05-10T13:29:30;16.70;99.90
51615;DHT22;37695;52.960;6.188;2023-05-10T13:31:56;16.70;99.90
51615;DHT22;37695;52.960;6.188;2023-05-10T13:34:21;16.70;99.90
51615;DHT22;37695;52.960;6.188;2023-05-10T13:36:47;16.80;99.90
51615;DHT22;37695;52.960;6.188;2023-05-10T13:39:14;16.80;99.90
51615;DHT22;37695;52.960;6.188;2023-05-10T13:41:39;16.80;99.90
51615;DHT22;37695;52.960;6.188;2023-05-10T13:44:05;16.80;99.90
51615;DHT22;37695;52.960;6.188;2023-05-10T13:46:30;16.80;99.90
51615;DHT22;37695;52.960;6.188;2023-05-10T13:48:56;16.90;99.90
51615;DHT22;37695;52.960;6.188;2023-05-10T13:51:22;16.90;99.90
51615;DHT22;37695;52.960;6.188;2023-05-10T13:53:48;16.90;99.90
51615;DHT22;37695;52.960;6.188;2023-05-10T13:56:14;16.90;99.90
51615;DHT22;37695;52.960;6.188;2023-05-10T13:58:39;16.90;99.90
51615;DHT22;37695;52.960;6.188;2023-05-10T14:01:05;16.80;99.90
51615;DHT22;37695;52.960;6.188;2023-05-10T14:03:31;16.80;99.90
51615;DHT22;37695;52.960;6.188;2023-05-10T14:05:56;16.70;99.90
51615;DHT22;37695;52.960;6.188;2023-05-10T14:08:22;16.50;99.90
51615;DHT22;37695;52.960;6.188;2023-05-10T14:10:48;16.50;99.90
51615;DHT22;37695;52.960;6.188;2023-05-10T14:13:14;16.40;99.90
51615;DHT22;37695;52.960;6.188;2023-05-10T14:15:40;16.40;99.90
51615;DHT22;37695;52.960;6.188;2023-05-10T14:18:06;16.40;99.90
51615;DHT22;37695;52.960;6.188;2023-05-10T14:20:32;16.40;99.90
51615;DHT22;37695;52.960;6.188;2023-05-10T14:22:59;16.40;99.90
51615;DHT22;37695;52.960;6.188;2023-05-10T14:25:25;16.40;99.90
51615;DHT22;37695;52.960;6.188;2023-05-10T14:27:51;16.40;99.90
51615;DHT22;37695;52.960;6.188;2023-05-10T14:30:17;16.30;99.90
51615;DHT22;37695;52.960;6.188;2023-05-10T14:32:42;16.40;99.90
51615;DHT22;37695;52.960;6.188;2023-05-10T14:35:08;16.50;99.90
51615;DHT22;37695;52.960;6.188;2023-05-10T14:37:34;16.60;99.90
51615;DHT22;37695;52.960;6.188;2023-05-10T14:39:59;16.60;99.90
51615;DHT22;37695;52.960;6.188;2023-05-10T14:42:25;16.80;99.90
51615;DHT22;37695;52.960;6.188;2023-05-10T14:44:51;16.80;99.90
51615;DHT22;37695;52.960;6.188;2023-05-10T14:47:16;16.90;99.90
51615;DHT22;37695;52.960;6.188;2023-05-10T14:49:42;17.00;99.90
51615;DHT22;37695;52.960;6.188;2023-05-10T14:52:07;17.20;99.90
51615;DHT22;37695;52.960;6.188;2023-05-10T14:54:33;17.20;99.90
51615;DHT22;37695;52.960;6.188;2023-05-10T14:56:59;17.20;99.90
51615;DHT22;37695;52.960;6.188;2023-05-10T14:59:25;17.20;99.90
51615;DHT22;37695;52.960;6.188;2023-05-10T15:01:51;17.10;99.90
51615;DHT22;37695;52.960;6.188;2023-05-10T15:04:16;17.20;99.90
51615;DHT22;37695;52.960;6.188;2023-05-10T15:06:42;17.20;99.90
51615;DHT22;37695;52.960;6.188;2023-05-10T15:09:08;17.10;99.90
51615;DHT22;37695;52.960;6.188;2023-05-10T15:11:34;17.10;99.90
51615;DHT22;37695;52.960;6.188;2023-05-10T15:14:01;17.00;99.90
51615;DHT22;37695;52.960;6.188;2023-05-10T15:16:27;17.00;99.90
51615;DHT22;37695;52.960;6.188;2023-05-10T15:18:52;17.00;99.90
51615;DHT22;37695;52.960;6.188;2023-05-10T15:21:18;17.10;99.90
51615;DHT22;37695;52.960;6.188;2023-05-10T15:23:43;17.10;99.90
51615;DHT22;37695;52.960;6.188;2023-05-10T15:26:09;17.00;99.90
51615;DHT22;37695;52.960;6.188;2023-05-10T15:28:35;17.00;99.90
51615;DHT22;37695;52.960;6.188;2023-05-10T15:31:00;16.90;99.90
51615;DHT22;37695;52.960;6.188;2023-05-10T15:33:26;16.80;99.90
51615;DHT22;37695;52.960;6.188;2023-05-10T15:35:52;16.80;99.90
51615;DHT22;37695;52.960;6.188;2023-05-10T15:38:19;16.80;99.90
51615;DHT22;37695;52.960;6.188;2023-05-10T15:40:44;16.80;99.90
51615;DHT22;37695;52.960;6.188;2023-05-10T15:43:10;16.80;99.90
51615;DHT22;37695;52.960;6.188;2023-05-10T15:45:35;16.80;99.90